sensor_id;sensor_type;location;lat;lon;timestamp;pressure;altitude;pressure_sealevel;temperature;humidity
62124;BME280;48110;47.532;19.078;2023-08-30T00:02:53;99143.59;;;16.62;100.00
62124;BME280;48110;47.532;19.078;2023-08-30T00:06:02;99150.59;;;16.63;100.00
62124;BME280;48110;47.532;19.078;2023-08-30T00:09:05;99162.03;;;16.59;100.00
62124;BME280;48110;47.532;19.078;2023-08-30T00:12:08;99159.69;;;16.50;100.00
62124;BME280;48110;47.532;19.078;2023-08-30T00:15:10;99155.84;;;16.58;100.00
62124;BME280;48110;47.532;19.078;2023-08-30T00:18:13;99169.00;;;16.60;100.00
62124;BME280;48110;47.532;19.078;2023-08-30T00:21:16;99177.84;;;16.60;100.00
62124;BME280;48110;47.532;19.078;2023-08-30T00:24:19;99168.19;;;16.59;100.00
62124;BME280;48110;47.532;19.078;2023-08-30T00:27:21;99162.56;;;16.61;100.00
62124;BME280;48110;47.532;19.078;2023-08-30T00:30:24;99167.16;;;16.60;100.00
62124;BME280;48110;47.532;19.078;2023-08-30T00:33:27;99166.66;;;16.63;100.00
62124;BME280;48110;47.532;19.078;2023-08-30T00:36:30;99173.41;;;16.66;100.00
62124;BME280;48110;47.532;19.078;2023-08-30T00:39:33;99179.72;;;16.60;100.00
62124;BME280;48110;47.532;19.078;2023-08-30T00:42:36;99178.75;;;16.54;100.00
62124;BME280;48110;47.532;19.078;2023-08-30T00:45:40;99181.78;;;16.46;100.00
62124;BME280;48110;47.532;19.078;2023-08-30T00:48:44;99181.44;;;16.42;100.00
62124;BME280;48110;47.532;19.078;2023-08-30T00:51:47;99192.47;;;16.46;100.00
62124;BME280;48110;47.532;19.078;2023-08-30T00:54:50;99194.00;;;16.42;100.00
62124;BME280;48110;47.532;19.078;2023-08-30T00:57:52;99194.25;;;16.40;100.00
62124;BME280;48110;47.532;19.078;2023-08-30T01:00:55;99194.13;;;16.47;100.00
62124;BME280;48110;47.532;19.078;2023-08-30T01:03:59;99193.56;;;16.33;100.00
62124;BME280;48110;47.532;19.078;2023-08-30T01:07:04;99189.72;;;16.29;100.00
62124;BME280;48110;47.532;19.078;2023-08-30T01:10:08;99190.09;;;16.21;100.00
62124;BME280;48110;47.532;19.078;2023-08-30T01:13:17;99193.91;;;16.14;100.00
62124;BME280;48110;47.532;19.078;2023-08-30T01:16:21;99186.00;;;16.07;100.00
62124;BME280;48110;47.532;19.078;2023-08-30T01:19:37;99177.28;;;16.12;100.00
62124;BME280;48110;47.532;19.078;2023-08-30T01:26:13;99190.41;;;16.13;100.00
62124;BME280;48110;47.532;19.078;2023-08-30T01:29:18;99194.50;;;16.16;100.00
62124;BME280;48110;47.532;19.078;2023-08-30T01:32:22;99185.53;;;16.22;100.00
62124;BME280;48110;47.532;19.078;2023-08-30T01:35:29;99186.81;;;16.19;100.00
62124;BME280;48110;47.532;19.078;2023-08-30T01:38:36;99189.97;;;16.16;100.00
62124;BME280;48110;47.532;19.078;2023-08-30T01:41:40;99186.00;;;16.19;100.00
62124;BME280;48110;47.532;19.078;2023-08-30T01:44:44;99186.81;;;16.19;100.00
62124;BME280;48110;47.532;19.078;2023-08-30T01:47:49;99184.84;;;16.15;100.00
62124;BME280;48110;47.532;19.078;2023-08-30T01:50:55;99188.78;;;16.12;100.00
62124;BME280;48110;47.532;19.078;2023-08-30T01:54:02;99179.16;;;16.11;100.00
62124;BME280;48110;47.532;19.078;2023-08-30T01:57:06;99179.63;;;16.31;100.00
62124;BME280;48110;47.532;19.078;2023-08-30T02:00:09;99185.28;;;16.23;100.00
62124;BME280;48110;47.532;19.078;2023-08-30T02:03:16;99192.28;;;16.24;100.00
62124;BME280;48110;47.532;19.078;2023-08-30T02:06:32;99189.00;;;16.22;100.00
62124;BME280;48110;47.532;19.078;2023-08-30T02:09:57;99187.03;;;16.18;100.00
62124;BME280;48110;47.532;19.078;2023-08-30T02:13:03;99202.06;;;16.19;100.00
62124;BME280;48110;47.532;19.078;2023-08-30T02:16:07;99196.59;;;16.14;100.00
62124;BME280;48110;47.532;19.078;2023-08-30T02:19:13;99198.22;;;16.15;100.00
62124;BME280;48110;47.532;19.078;2023-08-30T02:22:19;99201.81;;;16.08;100.00
62124;BME280;48110;47.532;19.078;2023-08-30T02:25:22;99197.62;;;16.13;100.00
62124;BME280;48110;47.532;19.078;2023-08-30T02:28:28;99198.69;;;16.12;100.00
62124;BME280;48110;47.532;19.078;2023-08-30T02:31:31;99207.50;;;16.12;100.00
62124;BME280;48110;47.532;19.078;2023-08-30T02:34:34;99204.16;;;16.05;100.00
62124;BME280;48110;47.532;19.078;2023-08-30T02:37:38;99208.34;;;16.01;100.00
62124;BME280;48110;47.532;19.078;2023-08-30T02:40:42;99211.13;;;16.06;100.00
62124;BME280;48110;47.532;19.078;2023-08-30T02:43:45;99209.63;;;16.10;100.00
62124;BME280;48110;47.532;19.078;2023-08-30T02:46:48;99212.16;;;16.05;100.00
62124;BME280;48110;47.532;19.078;2023-08-30T02:49:50;99209.97;;;16.02;100.00
62124;BME280;48110;47.532;19.078;2023-08-30T02:52:53;99205.66;;;16.01;100.00
62124;BME280;48110;47.532;19.078;2023-08-30T02:55:56;99216.69;;;16.04;100.00
62124;BME280;48110;47.532;19.078;2023-08-30T02:58:59;99216.47;;;16.06;100.00
62124;BME280;48110;47.532;19.078;2023-08-30T03:02:02;99210.75;;;16.02;100.00
62124;BME280;48110;47.532;19.078;2023-08-30T03:05:05;99217.31;;;16.06;100.00
62124;BME280;48110;47.532;19.078;2023-08-30T03:08:08;99201.47;;;16.05;100.00
62124;BME280;48110;47.532;19.078;2023-08-30T03:11:13;99205.44;;;16.14;100.00
62124;BME280;48110;47.532;19.078;2023-08-30T03:14:16;99214.63;;;16.06;100.00
62124;BME280;48110;47.532;19.078;2023-08-30T03:17:19;99209.72;;;16.03;100.00
62124;BME280;48110;47.532;19.078;2023-08-30T03:20:21;99205.41;;;16.02;100.00
62124;BME280;48110;47.532;19.078;2023-08-30T03:23:26;99210.06;;;15.95;100.00
62124;BME280;48110;47.532;19.078;2023-08-30T03:26:28;99210.16;;;15.89;100.00
62124;BME280;48110;47.532;19.078;2023-08-30T03:29:31;99216.47;;;15.94;100.00
62124;BME280;48110;47.532;19.078;2023-08-30T03:32:34;99208.34;;;16.01;100.00
62124;BME280;48110;47.532;19.078;2023-08-30T03:35:37;99216.94;;;16.03;100.00
62124;BME280;48110;47.532;19.078;2023-08-30T03:38:40;99218.22;;;16.00;100.00
62124;BME280;48110;47.532;19.078;2023-08-30T03:41:43;99212.66;;;16.02;100.00
62124;BME280;48110;47.532;19.078;2023-08-30T03:44:47;99208.69;;;16.04;100.00
62124;BME280;48110;47.532;19.078;2023-08-30T03:47:50;99208.44;;;16.06;100.00
62124;BME280;48110;47.532;19.078;2023-08-30T03:50:54;99218.22;;;16.00;100.00
62124;BME280;48110;47.532;19.078;2023-08-30T03:53:58;99216.34;;;16.01;100.00
62124;BME280;48110;47.532;19.078;2023-08-30T03:57:00;99220.41;;;15.92;100.00
62124;BME280;48110;47.532;19.078;2023-08-30T04:00:03;99223.22;;;15.97;100.00
62124;BME280;48110;47.532;19.078;2023-08-30T04:03:15;99228.44;;;15.92;100.00
62124;BME280;48110;47.532;19.078;2023-08-30T04:06:18;99240.88;;;15.86;100.00
62124;BME280;48110;47.532;19.078;2023-08-30T04:09:23;99240.88;;;15.86;100.00
62124;BME280;48110;47.532;19.078;2023-08-30T04:12:26;99240.41;;;15.89;100.00
62124;BME280;48110;47.532;19.078;2023-08-30T04:15:29;99245.19;;;15.87;100.00
62124;BME280;48110;47.532;19.078;2023-08-30T04:18:31;99248.44;;;15.89;100.00
62124;BME280;48110;47.532;19.078;2023-08-30T04:21:34;99250.06;;;15.90;100.00
62124;BME280;48110;47.532;19.078;2023-08-30T04:24:37;99242.62;;;15.92;100.00
62124;BME280;48110;47.532;19.078;2023-08-30T04:27:39;99244.72;;;15.90;100.00
62124;BME280;48110;47.532;19.078;2023-08-30T04:30:42;99250.66;;;15.92;100.00
62124;BME280;48110;47.532;19.078;2023-08-30T04:33:46;99257.19;;;15.96;100.00
62124;BME280;48110;47.532;19.078;2023-08-30T04:36:49;99268.22;;;16.00;100.00
62124;BME280;48110;47.532;19.078;2023-08-30T04:39:52;99270.22;;;16.04;100.00
62124;BME280;48110;47.532;19.078;2023-08-30T04:42:58;99277.41;;;16.04;100.00
62124;BME280;48110;47.532;19.078;2023-08-30T04:46:01;99270.91;;;16.00;100.00
62124;BME280;48110;47.532;19.078;2023-08-30T04:49:04;99275.81;;;16.15;100.00
62124;BME280;48110;47.532;19.078;2023-08-30T04:52:07;99277.31;;;16.11;100.00
62124;BME280;48110;47.532;19.078;2023-08-30T04:55:10;99270.13;;;16.11;100.00
62124;BME280;48110;47.532;19.078;2023-08-30T04:58:13;99270.81;;;16.18;100.00
62124;BME280;48110;47.532;19.078;2023-08-30T05:01:16;99269.53;;;16.21;100.00
62124;BME280;48110;47.532;19.078;2023-08-30T05:04:19;99266.38;;;16.12;100.00
62124;BME280;48110;47.532;19.078;2023-08-30T05:07:22;99276.50;;;16.22;100.00
62124;BME280;48110;47.532;19.078;2023-08-30T05:10:25;99279.66;;;16.07;100.00
62124;BME280;48110;47.532;19.078;2023-08-30T05:13:29;99281.94;;;16.03;100.00
62124;BME280;48110;47.532;19.078;2023-08-30T05:16:33;99289.53;;;16.18;100.00
62124;BME280;48110;47.532;19.078;2023-08-30T05:19:37;99280.34;;;16.14;100.00
62124;BME280;48110;47.532;19.078;2023-08-30T05:22:40;99284.78;;;16.20;100.00
62124;BME280;48110;47.532;19.078;2023-08-30T05:25:43;99274.78;;;16.16;100.00
62124;BME280;48110;47.532;19.078;2023-08-30T05:28:45;99272.78;;;16.11;100.00
62124;BME280;48110;47.532;19.078;2023-08-30T05:31:48;99274.03;;;16.08;100.00
62124;BME280;48110;47.532;19.078;2023-08-30T05:34:54;99275.78;;;16.03;100.00
62124;BME280;48110;47.532;19.078;2023-08-30T05:37:58;99273.22;;;16.08;100.00
62124;BME280;48110;47.532;19.078;2023-08-30T05:41:01;99284.00;;;16.31;100.00
62124;BME280;48110;47.532;19.078;2023-08-30T05:44:05;99287.84;;;16.35;100.00
62124;BME280;48110;47.532;19.078;2023-08-30T05:47:08;99292.50;;;16.40;100.00
62124;BME280;48110;47.532;19.078;2023-08-30T05:50:11;99294.56;;;16.38;100.00
62124;BME280;48110;47.532;19.078;2023-08-30T05:53:14;99304.34;;;16.44;100.00
62124;BME280;48110;47.532;19.078;2023-08-30T05:56:17;99305.19;;;16.44;100.00
62124;BME280;48110;47.532;19.078;2023-08-30T05:59:21;99306.44;;;16.42;100.00
62124;BME280;48110;47.532;19.078;2023-08-30T06:02:24;99303.12;;;16.58;100.00
62124;BME280;48110;47.532;19.078;2023-08-30T06:05:27;99305.44;;;16.66;100.00
62124;BME280;48110;47.532;19.078;2023-08-30T06:08:29;99289.12;;;16.68;100.00
62124;BME280;48110;47.532;19.078;2023-08-30T06:11:32;99288.22;;;16.74;100.00
62124;BME280;48110;47.532;19.078;2023-08-30T06:14:35;99292.53;;;16.75;100.00
62124;BME280;48110;47.532;19.078;2023-08-30T06:17:38;99291.78;;;16.91;100.00
62124;BME280;48110;47.532;19.078;2023-08-30T06:20:41;99299.69;;;17.09;100.00
62124;BME280;48110;47.532;19.078;2023-08-30T06:23:44;99305.47;;;17.29;100.00
62124;BME280;48110;47.532;19.078;2023-08-30T06:26:47;99311.31;;;17.26;100.00
62124;BME280;48110;47.532;19.078;2023-08-30T06:29:50;99304.50;;;17.47;100.00
62124;BME280;48110;47.532;19.078;2023-08-30T06:32:53;99305.78;;;17.45;100.00
62124;BME280;48110;47.532;19.078;2023-08-30T06:35:58;99306.50;;;17.80;100.00
62124;BME280;48110;47.532;19.078;2023-08-30T06:39:01;99314.53;;;17.80;100.00
62124;BME280;48110;47.532;19.078;2023-08-30T06:42:04;99332.38;;;18.03;100.00
62124;BME280;48110;47.532;19.078;2023-08-30T06:45:11;99338.41;;;17.81;100.00
62124;BME280;48110;47.532;19.078;2023-08-30T06:48:14;99330.87;;;17.78;100.00
62124;BME280;48110;47.532;19.078;2023-08-30T06:51:18;99317.53;;;17.44;100.00
62124;BME280;48110;47.532;19.078;2023-08-30T06:54:21;99318.50;;;17.77;100.00
62124;BME280;48110;47.532;19.078;2023-08-30T06:57:24;99310.06;;;18.64;100.00
62124;BME280;48110;47.532;19.078;2023-08-30T07:00:28;99311.47;;;19.97;100.00
62124;BME280;48110;47.532;19.078;2023-08-30T07:03:32;99314.56;;;19.84;100.00
62124;BME280;48110;47.532;19.078;2023-08-30T07:06:35;99319.84;;;20.01;100.00
62124;BME280;48110;47.532;19.078;2023-08-30T07:09:40;99322.56;;;19.52;100.00
62124;BME280;48110;47.532;19.078;2023-08-30T07:12:44;99332.59;;;20.10;100.00
62124;BME280;48110;47.532;19.078;2023-08-30T07:15:51;99330.41;;;20.34;100.00
62124;BME280;48110;47.532;19.078;2023-08-30T07:18:54;99334.84;;;20.50;100.00
62124;BME280;48110;47.532;19.078;2023-08-30T07:21:57;99335.06;;;19.90;100.00
62124;BME280;48110;47.532;19.078;2023-08-30T07:25:00;99325.59;;;19.39;100.00
62124;BME280;48110;47.532;19.078;2023-08-30T07:28:06;99320.75;;;19.58;100.00
62124;BME280;48110;47.532;19.078;2023-08-30T07:31:12;99330.44;;;19.59;100.00
62124;BME280;48110;47.532;19.078;2023-08-30T07:34:21;99331.09;;;19.71;100.00
62124;BME280;48110;47.532;19.078;2023-08-30T07:37:25;99334.50;;;19.61;100.00
62124;BME280;48110;47.532;19.078;2023-08-30T07:40:31;99334.66;;;19.76;100.00
62124;BME280;48110;47.532;19.078;2023-08-30T07:43:34;99336.19;;;19.67;100.00
62124;BME280;48110;47.532;19.078;2023-08-30T07:46:37;99346.00;;;19.35;100.00
62124;BME280;48110;47.532;19.078;2023-08-30T07:49:41;99352.31;;;19.67;100.00
62124;BME280;48110;47.532;19.078;2023-08-30T07:52:46;99351.44;;;19.62;100.00
62124;BME280;48110;47.532;19.078;2023-08-30T07:55:50;99346.53;;;19.80;100.00
62124;BME280;48110;47.532;19.078;2023-08-30T07:58:54;99351.16;;;19.85;100.00
62124;BME280;48110;47.532;19.078;2023-08-30T08:01:57;99351.97;;;19.85;100.00
62124;BME280;48110;47.532;19.078;2023-08-30T08:05:01;99351.97;;;19.42;100.00
62124;BME280;48110;47.532;19.078;2023-08-30T08:08:04;99345.41;;;19.11;100.00
62124;BME280;48110;47.532;19.078;2023-08-30T08:11:07;99357.88;;;19.61;100.00
62124;BME280;48110;47.532;19.078;2023-08-30T08:14:10;99357.03;;;20.04;100.00
62124;BME280;48110;47.532;19.078;2023-08-30T08:17:16;99357.66;;;20.37;100.00
62124;BME280;48110;47.532;19.078;2023-08-30T08:20:19;99362.06;;;21.22;100.00
62124;BME280;48110;47.532;19.078;2023-08-30T08:23:22;99367.13;;;20.77;100.00
62124;BME280;48110;47.532;19.078;2023-08-30T08:26:25;99368.63;;;20.04;100.00
62124;BME280;48110;47.532;19.078;2023-08-30T08:29:28;99372.69;;;20.33;100.00
62124;BME280;48110;47.532;19.078;2023-08-30T08:32:31;99364.53;;;20.02;100.00
62124;BME280;48110;47.532;19.078;2023-08-30T08:35:34;99365.94;;;20.31;100.00
62124;BME280;48110;47.532;19.078;2023-08-30T08:38:37;99364.38;;;19.43;100.00
62124;BME280;48110;47.532;19.078;2023-08-30T08:41:42;99376.00;;;19.65;100.00
62124;BME280;48110;47.532;19.078;2023-08-30T08:44:56;99370.88;;;19.90;100.00
62124;BME280;48110;47.532;19.078;2023-08-30T08:48:03;99369.22;;;21.07;100.00
62124;BME280;48110;47.532;19.078;2023-08-30T08:51:06;99362.75;;;20.66;100.00
62124;BME280;48110;47.532;19.078;2023-08-30T08:54:11;99364.66;;;20.12;100.00
62124;BME280;48110;47.532;19.078;2023-08-30T08:57:14;99365.22;;;20.14;100.00
62124;BME280;48110;47.532;19.078;2023-08-30T09:00:17;99368.16;;;20.39;100.00
62124;BME280;48110;47.532;19.078;2023-08-30T09:03:20;99379.62;;;20.29;100.00
62124;BME280;48110;47.532;19.078;2023-08-30T09:06:24;99381.28;;;20.30;100.00
62124;BME280;48110;47.532;19.078;2023-08-30T09:09:27;99374.84;;;20.63;100.00
62124;BME280;48110;47.532;19.078;2023-08-30T09:12:35;99379.19;;;21.06;100.00
62124;BME280;48110;47.532;19.078;2023-08-30T09:15:38;99374.06;;;20.68;100.00
62124;BME280;48110;47.532;19.078;2023-08-30T09:18:42;99376.19;;;19.59;100.00
62124;BME280;48110;47.532;19.078;2023-08-30T09:21:52;99380.16;;;19.56;100.00
62124;BME280;48110;47.532;19.078;2023-08-30T09:24:56;99392.94;;;19.44;100.00
62124;BME280;48110;47.532;19.078;2023-08-30T09:28:02;99388.84;;;19.85;100.00
62124;BME280;48110;47.532;19.078;2023-08-30T09:31:06;99393.88;;;19.76;100.00
62124;BME280;48110;47.532;19.078;2023-08-30T09:34:26;99401.53;;;20.11;100.00
62124;BME280;48110;47.532;19.078;2023-08-30T09:37:30;99399.69;;;19.46;100.00
62124;BME280;48110;47.532;19.078;2023-08-30T09:40:32;99397.13;;;19.78;100.00
62124;BME280;48110;47.532;19.078;2023-08-30T09:43:43;99394.28;;;20.12;100.00
62124;BME280;48110;47.532;19.078;2023-08-30T09:46:55;99406.06;;;20.59;100.00
62124;BME280;48110;47.532;19.078;2023-08-30T09:50:00;99403.38;;;20.96;100.00
62124;BME280;48110;47.532;19.078;2023-08-30T09:53:07;99416.69;;;21.08;100.00
62124;BME280;48110;47.532;19.078;2023-08-30T09:56:15;99418.78;;;20.96;100.00
62124;BME280;48110;47.532;19.078;2023-08-30T09:59:19;99424.84;;;20.81;100.00
62124;BME280;48110;47.532;19.078;2023-08-30T10:02:22;99420.97;;;20.40;100.00
62124;BME280;48110;47.532;19.078;2023-08-30T10:05:26;99423.28;;;19.83;100.00
62124;BME280;48110;47.532;19.078;2023-08-30T10:08:30;99428.22;;;20.13;100.00
62124;BME280;48110;47.532;19.078;2023-08-30T10:11:38;99417.88;;;20.05;100.00
62124;BME280;48110;47.532;19.078;2023-08-30T10:14:41;99411.03;;;20.41;100.00
62124;BME280;48110;47.532;19.078;2023-08-30T10:17:45;99419.16;;;20.77;100.00
62124;BME280;48110;47.532;19.078;2023-08-30T10:20:49;99416.56;;;20.56;100.00
62124;BME280;48110;47.532;19.078;2023-08-30T10:23:56;99418.84;;;20.74;100.00
62124;BME280;48110;47.532;19.078;2023-08-30T10:27:03;99417.62;;;20.55;100.00
62124;BME280;48110;47.532;19.078;2023-08-30T10:30:09;99426.28;;;20.57;100.00
62124;BME280;48110;47.532;19.078;2023-08-30T10:33:14;99416.78;;;19.57;100.00
62124;BME280;48110;47.532;19.078;2023-08-30T10:36:26;99411.72;;;20.09;100.00
62124;BME280;48110;47.532;19.078;2023-08-30T10:39:39;99416.47;;;20.24;100.00
62124;BME280;48110;47.532;19.078;2023-08-30T10:42:42;99415.22;;;20.58;100.00
62124;BME280;48110;47.532;19.078;2023-08-30T10:45:57;99415.69;;;21.14;100.00
62124;BME280;48110;47.532;19.078;2023-08-30T10:49:13;99418.50;;;21.91;100.00
62124;BME280;48110;47.532;19.078;2023-08-30T10:52:19;99413.31;;;21.80;100.00
62124;BME280;48110;47.532;19.078;2023-08-30T10:55:23;99416.13;;;21.06;100.00
62124;BME280;48110;47.532;19.078;2023-08-30T10:58:26;99419.47;;;20.81;100.00
62124;BME280;48110;47.532;19.078;2023-08-30T11:01:29;99418.03;;;21.47;100.00
62124;BME280;48110;47.532;19.078;2023-08-30T11:04:32;99415.22;;;21.84;100.00
62124;BME280;48110;47.532;19.078;2023-08-30T11:07:35;99415.25;;;21.32;100.00
62124;BME280;48110;47.532;19.078;2023-08-30T11:10:38;99416.72;;;22.17;100.00
62124;BME280;48110;47.532;19.078;2023-08-30T11:13:45;99408.63;;;22.17;100.00
62124;BME280;48110;47.532;19.078;2023-08-30T11:16:48;99408.94;;;22.61;100.00
62124;BME280;48110;47.532;19.078;2023-08-30T11:19:57;99398.37;;;22.44;100.00
62124;BME280;48110;47.532;19.078;2023-08-30T11:23:02;99406.25;;;22.86;100.00
62124;BME280;48110;47.532;19.078;2023-08-30T11:26:07;99399.47;;;22.59;100.00
62124;BME280;48110;47.532;19.078;2023-08-30T11:29:09;99409.13;;;23.61;100.00
62124;BME280;48110;47.532;19.078;2023-08-30T11:32:13;99408.44;;;25.11;93.71
62124;BME280;48110;47.532;19.078;2023-08-30T11:35:15;99397.56;;;26.62;74.29
62124;BME280;48110;47.532;19.078;2023-08-30T11:38:19;99401.75;;;29.57;59.52
62124;BME280;48110;47.532;19.078;2023-08-30T11:41:23;99394.06;;;27.54;62.62
62124;BME280;48110;47.532;19.078;2023-08-30T11:44:30;99399.19;;;25.65;78.21
62124;BME280;48110;47.532;19.078;2023-08-30T11:47:33;99406.87;;;25.05;87.15
62124;BME280;48110;47.532;19.078;2023-08-30T11:50:37;99399.09;;;24.15;98.46
62124;BME280;48110;47.532;19.078;2023-08-30T11:53:50;99395.97;;;23.09;100.00
62124;BME280;48110;47.532;19.078;2023-08-30T11:56:53;99395.19;;;22.73;100.00
62124;BME280;48110;47.532;19.078;2023-08-30T12:00:06;99397.06;;;23.03;100.00
62124;BME280;48110;47.532;19.078;2023-08-30T12:03:13;99383.78;;;22.30;100.00
62124;BME280;48110;47.532;19.078;2023-08-30T12:06:17;99380.03;;;22.82;100.00
62124;BME280;48110;47.532;19.078;2023-08-30T12:09:19;99386.41;;;22.00;100.00
62124;BME280;48110;47.532;19.078;2023-08-30T12:12:25;99381.00;;;21.95;100.00
62124;BME280;48110;47.532;19.078;2023-08-30T12:15:32;99390.06;;;21.63;100.00
62124;BME280;48110;47.532;19.078;2023-08-30T12:18:37;99395.91;;;21.50;100.00
62124;BME280;48110;47.532;19.078;2023-08-30T12:21:41;99388.56;;;21.36;100.00
62124;BME280;48110;47.532;19.078;2023-08-30T12:24:44;99390.25;;;21.05;100.00
62124;BME280;48110;47.532;19.078;2023-08-30T12:27:47;99383.22;;;21.46;100.00
62124;BME280;48110;47.532;19.078;2023-08-30T12:30:50;99378.03;;;21.29;100.00
62124;BME280;48110;47.532;19.078;2023-08-30T12:33:54;99377.38;;;21.74;100.00
62124;BME280;48110;47.532;19.078;2023-08-30T12:36:57;99375.19;;;21.61;100.00
62124;BME280;48110;47.532;19.078;2023-08-30T12:40:01;99385.25;;;21.18;100.00
62124;BME280;48110;47.532;19.078;2023-08-30T12:43:08;99378.75;;;20.82;100.00
62124;BME280;48110;47.532;19.078;2023-08-30T12:46:11;99370.66;;;21.14;100.00
62124;BME280;48110;47.532;19.078;2023-08-30T12:49:14;99374.03;;;21.42;100.00
62124;BME280;48110;47.532;19.078;2023-08-30T12:52:17;99370.91;;;21.75;100.00
62124;BME280;48110;47.532;19.078;2023-08-30T12:55:20;99362.44;;;22.34;100.00
62124;BME280;48110;47.532;19.078;2023-08-30T12:58:22;99356.50;;;22.92;100.00
62124;BME280;48110;47.532;19.078;2023-08-30T13:01:28;99357.28;;;24.65;92.50
62124;BME280;48110;47.532;19.078;2023-08-30T13:04:31;99359.69;;;25.72;81.80
62124;BME280;48110;47.532;19.078;2023-08-30T13:07:33;99360.22;;;28.18;62.98
62124;BME280;48110;47.532;19.078;2023-08-30T13:10:37;99353.56;;;28.10;62.67
62124;BME280;48110;47.532;19.078;2023-08-30T13:13:40;99350.94;;;27.42;65.40
62124;BME280;48110;47.532;19.078;2023-08-30T13:16:43;99359.28;;;26.03;72.03
62124;BME280;48110;47.532;19.078;2023-08-30T13:19:45;99360.75;;;24.71;83.34
62124;BME280;48110;47.532;19.078;2023-08-30T13:22:48;99355.19;;;27.35;67.05
62124;BME280;48110;47.532;19.078;2023-08-30T13:25:51;99360.37;;;26.39;70.58
62124;BME280;48110;47.532;19.078;2023-08-30T13:28:54;99359.38;;;24.74;83.04
62124;BME280;48110;47.532;19.078;2023-08-30T13:31:57;99364.59;;;23.08;100.00
62124;BME280;48110;47.532;19.078;2023-08-30T13:35:00;99363.00;;;22.41;100.00
62124;BME280;48110;47.532;19.078;2023-08-30T13:38:03;99367.59;;;22.76;100.00
62124;BME280;48110;47.532;19.078;2023-08-30T13:41:06;99363.53;;;22.73;100.00
62124;BME280;48110;47.532;19.078;2023-08-30T13:44:10;99367.94;;;23.64;100.00
62124;BME280;48110;47.532;19.078;2023-08-30T13:47:13;99375.91;;;25.06;77.91
62124;BME280;48110;47.532;19.078;2023-08-30T13:50:16;99377.13;;;23.68;91.99
62124;BME280;48110;47.532;19.078;2023-08-30T13:53:19;99372.72;;;22.62;100.00
62124;BME280;48110;47.532;19.078;2023-08-30T13:56:23;99369.31;;;24.20;91.26
62124;BME280;48110;47.532;19.078;2023-08-30T13:59:25;99366.09;;;23.54;97.30
62124;BME280;48110;47.532;19.078;2023-08-30T14:02:29;99372.38;;;23.19;94.60
62124;BME280;48110;47.532;19.078;2023-08-30T14:05:32;99373.19;;;22.03;100.00
62124;BME280;48110;47.532;19.078;2023-08-30T14:08:35;99379.28;;;21.74;100.00
62124;BME280;48110;47.532;19.078;2023-08-30T14:11:38;99365.41;;;21.50;100.00
62124;BME280;48110;47.532;19.078;2023-08-30T14:14:41;99381.91;;;22.46;100.00
62124;BME280;48110;47.532;19.078;2023-08-30T14:17:44;99382.47;;;22.83;100.00
62124;BME280;48110;47.532;19.078;2023-08-30T14:20:46;99381.09;;;22.71;100.00
62124;BME280;48110;47.532;19.078;2023-08-30T14:23:51;99377.00;;;22.18;100.00
62124;BME280;48110;47.532;19.078;2023-08-30T14:26:53;99383.50;;;21.44;100.00
62124;BME280;48110;47.532;19.078;2023-08-30T14:29:56;99386.13;;;21.29;100.00
62124;BME280;48110;47.532;19.078;2023-08-30T14:32:59;99378.59;;;22.08;100.00
62124;BME280;48110;47.532;19.078;2023-08-30T14:36:02;99388.38;;;22.35;100.00
62124;BME280;48110;47.532;19.078;2023-08-30T14:39:05;99390.00;;;21.53;100.00
62124;BME280;48110;47.532;19.078;2023-08-30T14:42:08;99394.25;;;21.39;100.00
62124;BME280;48110;47.532;19.078;2023-08-30T14:45:10;99387.19;;;20.91;100.00
62124;BME280;48110;47.532;19.078;2023-08-30T14:48:13;99392.56;;;20.86;100.00
62124;BME280;48110;47.532;19.078;2023-08-30T14:51:16;99399.22;;;20.47;100.00
62124;BME280;48110;47.532;19.078;2023-08-30T14:54:19;99401.66;;;20.48;100.00
62124;BME280;48110;47.532;19.078;2023-08-30T14:57:22;99401.34;;;20.18;100.00
62124;BME280;48110;47.532;19.078;2023-08-30T15:00:27;99399.66;;;20.12;100.00
62124;BME280;48110;47.532;19.078;2023-08-30T15:03:30;99398.19;;;19.99;100.00
62124;BME280;48110;47.532;19.078;2023-08-30T15:06:33;99402.47;;;20.00;100.00
62124;BME280;48110;47.532;19.078;2023-08-30T15:09:37;99406.44;;;19.92;100.00
62124;BME280;48110;47.532;19.078;2023-08-30T15:12:40;99401.66;;;20.00;100.00
62124;BME280;48110;47.532;19.078;2023-08-30T15:15:42;99401.22;;;19.59;100.00
62124;BME280;48110;47.532;19.078;2023-08-30T15:18:45;99393.19;;;19.64;100.00
62124;BME280;48110;47.532;19.078;2023-08-30T15:21:48;99403.53;;;19.72;100.00
62124;BME280;48110;47.532;19.078;2023-08-30T15:24:51;99405.38;;;19.72;100.00
62124;BME280;48110;47.532;19.078;2023-08-30T15:27:54;99400.63;;;19.57;100.00
62124;BME280;48110;47.532;19.078;2023-08-30T15:30:57;99404.50;;;19.44;100.00
62124;BME280;48110;47.532;19.078;2023-08-30T15:33:59;99403.97;;;19.26;100.00
62124;BME280;48110;47.532;19.078;2023-08-30T15:37:03;99397.84;;;19.30;100.00
62124;BME280;48110;47.532;19.078;2023-08-30T15:40:07;99396.44;;;19.66;100.00
62124;BME280;48110;47.532;19.078;2023-08-30T15:43:11;99400.91;;;19.39;100.00
62124;BME280;48110;47.532;19.078;2023-08-30T15:46:15;99404.38;;;19.18;100.00
62124;BME280;48110;47.532;19.078;2023-08-30T15:49:18;99414.37;;;19.22;100.00
62124;BME280;48110;47.532;19.078;2023-08-30T15:52:20;99419.84;;;19.27;100.00
62124;BME280;48110;47.532;19.078;2023-08-30T15:55:23;99420.72;;;19.33;100.00